Time;durP1;ratioP1;P1;durP2;ratioP2;P2;SDS_P1;SDS_P2;PMS_P1;PMS_P2;Temp;Humidity;BMP_temperature;BMP_pressure;BME280_temperature;BME280_humidity;BME280_pressure;Samples;Min_cycle;Max_cycle;Signal;HPM_P1;HPM_P2
2023/09/21 00:00:49;;;;;;;;;;;;;;;;;;5093345;28;876;-65
2023/09/21 00:03:14;;;;;;;;;;;;;;;;;;5093031;28;840;-65
2023/09/21 00:05:40;;;;;;;;;;;;;;;;;;5093560;28;1023;-65
2023/09/21 00:08:06;;;;;;;;;;;;;;;;;;5092271;28;852;-64
2023/09/21 00:10:32;;;;;;;;;;;;;;;;;;5093165;28;777;-64
2023/09/21 00:12:58;;;;;;;;;;;;;;;;;;5093573;28;789;-65
2023/09/21 00:15:34;;;;;;;;;;;;;;;;;;5093165;28;891;-65
2023/09/21 00:18:00;;;;;;;;;;;;;;;;;;5093166;28;1965;-65
2023/09/21 00:20:28;;;;;;;;;;;;;;;;;;5093244;28;812;-65
2023/09/21 00:22:53;;;;;;;;;;;;;;;;;;5091774;28;1720;-64
2023/09/21 00:25:19;;;;;;;;;;;;;;;;;;5092837;28;982;-64
2023/09/21 00:27:45;;;;;;;;;;;;;;;;;;5093323;28;871;-64
2023/09/21 00:30:10;;;;;;;;;;;;;;;;;;5094380;28;1210;-64
2023/09/21 00:32:38;;;;;;;;;;;;;;;;;;5097571;28;1192;-65
2023/09/21 00:35:09;;;;;;;;;;;;;;;;;;5102964;28;1147;-64
2023/09/21 00:37:35;;;;;;;;;;;;;;;;;;5091433;28;1917;-64
2023/09/21 00:40:00;;;;;;;;;;;;;;;;;;5092491;28;1409;-65
2023/09/21 00:42:26;;;;;;;;;;;;;;;;;;5093777;28;935;-64
2023/09/21 00:44:51;;;;;;;;;;;;;;;;;;5093281;28;979;-64
2023/09/21 00:47:17;;;;;;;;;;;;;;;;;;5093032;28;936;-65
2023/09/21 00:49:42;;;;;;;;;;;;;;;;;;5094100;28;935;-65
2023/09/21 00:52:11;;;;;;;;;;;;;;;;;;5093922;28;845;-65
2023/09/21 00:54:37;;;;;;;;;;;;;;;;;;5093946;28;836;-64
2023/09/21 00:57:03;;;;;;;;;;;;;;;;;;5093627;28;1901;-65
2023/09/21 00:59:32;;;;;;;;;;;;;;;;;;5092963;28;853;-64
2023/09/21 01:01:58;;;;;;;;;;;;;;;;;;5093236;28;839;-65
2023/09/21 01:04:23;;;;;;;;;;;;;;;;;;5092049;28;988;-64
2023/09/21 01:06:49;;;;;;;;;;;;;;;;;;5093249;28;983;-65
2023/09/21 01:09:17;;;;;;;;;;;;;;;;;;5091305;28;1219;-64
2023/09/21 01:11:42;;;;;;;;;;;;;;;;;;5093297;28;895;-65
2023/09/21 01:14:07;;;;;;;;;;;;;;;;;;5092847;28;919;-65
2023/09/21 01:16:33;;;;;;;;;;;;;;;;;;5091029;28;1972;-64
2023/09/21 01:18:59;;;;;;;;;;;;;;;;;;5092748;28;1153;-64
2023/09/21 01:21:34;;;;;;;;;;;;;;;;;;5091368;28;1215;-64
2023/09/21 01:24:00;;;;;;;;;;;;;;;;;;5092822;28;876;-65
2023/09/21 01:26:25;;;;;;;;;;;;;;;;;;5092258;28;921;-64
2023/09/21 01:28:50;;;;;;;;;;;;;;;;;;5092324;28;845;-64
2023/09/21 01:31:16;;;;;;;;;;;;;;;;;;5090485;28;1320;-64
2023/09/21 01:33:44;;;;;;;;;;;;;;;;;;5090882;28;1120;-66
2023/09/21 01:36:12;;;;;;;;;;;;;;;;;;5090569;28;1131;-65
2023/09/21 01:38:37;;;;;;;;;;;;;;;;;;5091664;28;1968;-65
2023/09/21 01:41:03;;;;;;;;;;;;;;;;;;5092382;28;1025;-65
2023/09/21 01:43:28;;;;;;;;;;;;;;;;;;5090289;28;1218;-65
2023/09/21 01:45:54;;;;;;;;;;;;;;;;;;5091629;28;887;-66
2023/09/21 01:48:19;;;;;;;;;;;;;;;;;;5090932;28;974;-65
2023/09/21 01:50:48;;;;;;;;;;;;;;;;;;5091682;28;898;-65
2023/09/21 01:53:18;;;;;;;;;;;;;;;;;;5091747;28;962;-65
2023/09/21 01:55:43;;;;;;;;;;;;;;;;;;5090079;28;840;-65
2023/09/21 01:58:10;;;;;;;;;;;;;;;;;;5091877;28;2241;-65
2023/09/21 02:00:39;;;;;;;;;;;;;;;;;;5089890;28;918;-65
2023/09/21 02:03:06;;;;;;;;;;;;;;;;;;5092011;28;984;-65
2023/09/21 02:05:31;;;;;;;;;;;;;;;;;;5091618;28;1048;-65
2023/09/21 02:07:57;;;;;;;;;;;;;;;;;;5092041;28;1156;-65
2023/09/21 02:10:22;;;;;;;;;;;;;;;;;;5090165;28;1232;-66
2023/09/21 02:12:55;;;;;;;;;;;;;;;;;;5091855;28;862;-65
2023/09/21 02:15:21;;;;;;;;;;;;;;;;;;5091292;28;931;-65
2023/09/21 02:17:46;;;;;;;;;;;;;;;;;;5091821;28;1966;-65
2023/09/21 02:20:15;;;;;;;;;;;;;;;;;;5091828;28;923;-65
2023/09/21 02:22:44;;;;;;;;;;;;;;;;;;5091169;28;1046;-65
2023/09/21 02:25:13;;;;;;;;;;;;;;;;;;5090340;28;1034;-65
2023/09/21 02:27:40;;;;;;;;;;;;;;;;;;5091833;28;847;-65
2023/09/21 02:30:14;;;;;;;;;;;;;;;;;;5091524;28;892;-64
2023/09/21 02:32:40;;;;;;;;;;;;;;;;;;5091513;28;911;-64
2023/09/21 02:35:07;;;;;;;;;;;;;;;;;;5090289;28;1242;-64
2023/09/21 02:37:33;;;;;;;;;;;;;;;;;;5091229;28;1961;-65
2023/09/21 02:39:59;;;;;;;;;;;;;;;;;;5091037;28;895;-65
2023/09/21 02:42:25;;;;;;;;;;;;;;;;;;5090980;28;883;-64
2023/09/21 02:44:50;;;;;;;;;;;;;;;;;;5090810;28;925;-65
2023/09/21 02:47:15;;;;;;;;;;;;;;;;;;5090979;28;943;-65
2023/09/21 02:49:44;;;;;;;;;;;;;;;;;;5090450;28;939;-65
2023/09/21 02:52:09;;;;;;;;;;;;;;;;;;5090718;28;912;-64
2023/09/21 02:54:34;;;;;;;;;;;;;;;;;;5089175;28;1232;-64
2023/09/21 02:56:59;;;;;;;;;;;;;;;;;;5089761;28;1979;-65
2023/09/21 02:59:28;;;;;;;;;;;;;;;;;;5091616;28;882;-65
2023/09/21 03:01:54;;;;;;;;;;;;;;;;;;5091807;28;852;-65
2023/09/21 03:04:20;;;;;;;;;;;;;;;;;;5091493;28;1094;-65
2023/09/21 03:06:46;;;;;;;;;;;;;;;;;;5090435;28;1198;-65
2023/09/21 03:09:11;;;;;;;;;;;;;;;;;;5090232;28;868;-65
2023/09/21 03:11:36;;;;;;;;;;;;;;;;;;5091534;28;883;-65
2023/09/21 03:14:04;;;;;;;;;;;;;;;;;;5092001;28;949;-65
2023/09/21 03:16:29;;;;;;;;;;;;;;;;;;5091082;28;1991;-65
2023/09/21 03:18:54;;;;;;;;;;;;;;;;;;5090510;28;1076;-65
2023/09/21 03:21:19;;;;;;;;;;;;;;;;;;5090205;28;1109;-65
2023/09/21 03:23:46;;;;;;;;;;;;;;;;;;5091075;28;880;-65
2023/09/21 03:26:13;;;;;;;;;;;;;;;;;;5090790;28;848;-65
2023/09/21 03:28:38;;;;;;;;;;;;;;;;;;5093903;28;821;-65
2023/09/21 03:31:03;;;;;;;;;;;;;;;;;;5093381;28;1322;-65
2023/09/21 03:33:29;;;;;;;;;;;;;;;;;;5093223;28;959;-65
2023/09/21 03:35:54;;;;;;;;;;;;;;;;;;5094448;28;852;-65
2023/09/21 03:38:19;;;;;;;;;;;;;;;;;;5094242;28;1910;-65
2023/09/21 03:40:45;;;;;;;;;;;;;;;;;;5095059;28;901;-65
2023/09/21 03:43:12;;;;;;;;;;;;;;;;;;5094609;28;1008;-65
2023/09/21 03:45:38;;;;;;;;;;;;;;;;;;5093650;28;1203;-65
2023/09/21 03:48:06;;;;;;;;;;;;;;;;;;5094418;28;988;-65
2023/09/21 03:50:32;;;;;;;;;;;;;;;;;;5094008;28;848;-65
2023/09/21 03:53:00;;;;;;;;;;;;;;;;;;5095029;28;843;-65
2023/09/21 03:55:25;;;;;;;;;;;;;;;;;;5092868;28;943;-65
2023/09/21 03:57:51;;;;;;;;;;;;;;;;;;5094297;28;1905;-65
2023/09/21 04:00:29;;;;;;;;;;;;;;;;;;5076062;28;1337;-65
2023/09/21 04:02:54;;;;;;;;;;;;;;;;;;5094850;28;1148;-65
2023/09/21 04:05:22;;;;;;;;;;;;;;;;;;5094258;28;888;-65
2023/09/21 04:07:48;;;;;;;;;;;;;;;;;;5092828;28;1199;-65
2023/09/21 04:10:15;;;;;;;;;;;;;;;;;;5094106;28;924;-65
2023/09/21 04:12:40;;;;;;;;;;;;;;;;;;5094260;28;844;-65
2023/09/21 04:15:11;;;;;;;;;;;;;;;;;;5093706;28;880;-65
2023/09/21 04:17:36;;;;;;;;;;;;;;;;;;5092387;28;1977;-65
2023/09/21 04:20:10;;;;;;;;;;;;;;;;;;5095581;28;848;-66
2023/09/21 04:22:36;;;;;;;;;;;;;;;;;;5094866;28;828;-64
2023/09/21 04:25:07;;;;;;;;;;;;;;;;;;5094538;28;903;-64
2023/09/21 04:27:33;;;;;;;;;;;;;;;;;;5077377;28;1400;-65
2023/09/21 04:29:58;;;;;;;;;;;;;;;;;;5094219;28;927;-64
2023/09/21 04:32:23;;;;;;;;;;;;;;;;;;5094764;28;1048;-65
2023/09/21 04:34:49;;;;;;;;;;;;;;;;;;5094491;28;978;-65
2023/09/21 04:37:14;;;;;;;;;;;;;;;;;;5093548;28;1914;-65
2023/09/21 04:39:39;;;;;;;;;;;;;;;;;;5092712;28;892;-65
2023/09/21 04:42:04;;;;;;;;;;;;;;;;;;5093624;28;856;-65
2023/09/21 04:44:30;;;;;;;;;;;;;;;;;;5091356;28;1573;-65
2023/09/21 04:46:55;;;;;;;;;;;;;;;;;;5093099;28;832;-65
2023/09/21 04:49:21;;;;;;;;;;;;;;;;;;5093173;28;913;-65
2023/09/21 04:51:46;;;;;;;;;;;;;;;;;;5092785;28;978;-65
2023/09/21 04:54:11;;;;;;;;;;;;;;;;;;5092409;28;957;-65
2023/09/21 04:56:37;;;;;;;;;;;;;;;;;;5089424;28;1910;-65
2023/09/21 04:59:02;;;;;;;;;;;;;;;;;;5096181;28;1175;-65
2023/09/21 05:01:27;;;;;;;;;;;;;;;;;;5091589;28;1160;-67
2023/09/21 05:03:53;;;;;;;;;;;;;;;;;;5107820;28;1167;-66
2023/09/21 05:06:18;;;;;;;;;;;;;;;;;;5090017;28;1162;-65
2023/09/21 05:08:44;;;;;;;;;;;;;;;;;;5091871;28;1180;-66
2023/09/21 05:11:09;;;;;;;;;;;;;;;;;;5093580;28;864;-66
2023/09/21 05:13:35;;;;;;;;;;;;;;;;;;5092265;28;2298;-66
2023/09/21 05:16:00;;;;;;;;;;;;;;;;;;5093815;28;943;-65
2023/09/21 05:18:26;;;;;;;;;;;;;;;;;;5093197;28;1901;-66
2023/09/21 05:20:51;;;;;;;;;;;;;;;;;;5093230;28;1233;-66
2023/09/21 05:23:16;;;;;;;;;;;;;;;;;;5095668;28;1155;-66
2023/09/21 05:25:42;;;;;;;;;;;;;;;;;;5094714;28;863;-66
2023/09/21 05:28:07;;;;;;;;;;;;;;;;;;5091512;28;1188;-66
2023/09/21 05:30:32;;;;;;;;;;;;;;;;;;5090525;28;1173;-66
2023/09/21 05:32:57;;;;;;;;;;;;;;;;;;5090802;28;1248;-67
2023/09/21 05:35:23;;;;;;;;;;;;;;;;;;5092161;28;847;-66
2023/09/21 05:37:48;;;;;;;;;;;;;;;;;;5091072;28;1959;-66
2023/09/21 05:40:14;;;;;;;;;;;;;;;;;;5091584;28;1234;-66
2023/09/21 05:42:41;;;;;;;;;;;;;;;;;;5085121;28;1536;-66
2023/09/21 05:45:07;;;;;;;;;;;;;;;;;;5104933;28;1222;-66
2023/09/21 05:47:32;;;;;;;;;;;;;;;;;;5091656;28;1156;-65
2023/09/21 05:49:57;;;;;;;;;;;;;;;;;;5091065;28;858;-65
2023/09/21 05:52:24;;;;;;;;;;;;;;;;;;5091964;28;943;-65
2023/09/21 05:54:49;;;;;;;;;;;;;;;;;;5091051;28;852;-65
2023/09/21 05:57:16;;;;;;;;;;;;;;;;;;5091918;28;1893;-65
2023/09/21 05:59:41;;;;;;;;;;;;;;;;;;5090442;28;907;-65
2023/09/21 06:02:12;;;;;;;;;;;;;;;;;;5090404;28;1352;-64
2023/09/21 06:04:39;;;;;;;;;;;;;;;;;;5090920;28;1009;-64
2023/09/21 06:07:04;;;;;;;;;;;;;;;;;;5091258;28;892;-64
2023/09/21 06:09:29;;;;;;;;;;;;;;;;;;5090799;28;844;-64
2023/09/21 06:11:54;;;;;;;;;;;;;;;;;;5091988;28;1179;-64
2023/09/21 06:14:21;;;;;;;;;;;;;;;;;;5107127;28;1123;-64
2023/09/21 06:16:47;;;;;;;;;;;;;;;;;;5111464;28;1913;-64
2023/09/21 06:19:12;;;;;;;;;;;;;;;;;;5110776;28;1155;-64
2023/09/21 06:21:41;;;;;;;;;;;;;;;;;;5110017;28;1248;-65
2023/09/21 06:24:07;;;;;;;;;;;;;;;;;;5111200;28;835;-65
2023/09/21 06:26:33;;;;;;;;;;;;;;;;;;5110477;28;1041;-66
2023/09/21 06:28:59;;;;;;;;;;;;;;;;;;5111390;28;864;-64
2023/09/21 06:31:24;;;;;;;;;;;;;;;;;;5111578;28;872;-64
2023/09/21 06:33:49;;;;;;;;;;;;;;;;;;5109621;28;965;-66
2023/09/21 06:36:20;;;;;;;;;;;;;;;;;;5109654;28;1065;-64
2023/09/21 06:38:45;;;;;;;;;;;;;;;;;;5110997;28;1922;-64
2023/09/21 06:41:11;;;;;;;;;;;;;;;;;;5111138;28;816;-64
2023/09/21 06:43:38;;;;;;;;;;;;;;;;;;5109840;28;1010;-64
2023/09/21 06:46:04;;;;;;;;;;;;;;;;;;5110601;28;903;-64
2023/09/21 06:48:30;;;;;;;;;;;;;;;;;;5109055;28;1340;-64
2023/09/21 06:50:55;;;;;;;;;;;;;;;;;;5111322;28;864;-64
2023/09/21 06:53:23;;;;;;;;;;;;;;;;;;5110847;28;947;-65
2023/09/21 06:55:48;;;;;;;;;;;;;;;;;;5110773;28;868;-65
2023/09/21 06:58:13;;;;;;;;;;;;;;;;;;5109568;28;1906;-65
2023/09/21 07:00:39;;;;;;;;;;;;;;;;;;5109565;28;1003;-66
2023/09/21 07:03:04;;;;;;;;;;;;;;;;;;5113811;28;1200;-66
2023/09/21 07:05:29;;;;;;;;;;;;;;;;;;5114095;28;1057;-63
2023/09/21 07:07:54;;;;;;;;;;;;;;;;;;5114879;28;1170;-64
2023/09/21 07:10:20;;;;;;;;;;;;;;;;;;5114588;28;820;-64
2023/09/21 07:12:45;;;;;;;;;;;;;;;;;;5116009;28;849;-65
2023/09/21 07:15:10;;;;;;;;;;;;;;;;;;5116706;28;897;-64
2023/09/21 07:17:36;;;;;;;;;;;;;;;;;;5115245;28;1894;-64
2023/09/21 07:20:04;;;;;;;;;;;;;;;;;;5115695;28;1254;-65
2023/09/21 07:22:29;;;;;;;;;;;;;;;;;;5115352;28;891;-64
2023/09/21 07:24:55;;;;;;;;;;;;;;;;;;5115137;28;812;-64
2023/09/21 07:27:22;;;;;;;;;;;;;;;;;;5114724;28;1159;-65
2023/09/21 07:29:47;;;;;;;;;;;;;;;;;;5115581;28;841;-65
2023/09/21 07:32:12;;;;;;;;;;;;;;;;;;5117167;28;1214;-65
2023/09/21 07:34:38;;;;;;;;;;;;;;;;;;5114620;28;1440;-65
2023/09/21 07:37:04;;;;;;;;;;;;;;;;;;5115383;28;1906;-65
2023/09/21 07:39:29;;;;;;;;;;;;;;;;;;5116722;28;982;-63
2023/09/21 07:41:54;;;;;;;;;;;;;;;;;;5113954;28;850;-65
2023/09/21 07:44:22;;;;;;;;;;;;;;;;;;5114484;28;998;-65
2023/09/21 07:46:49;;;;;;;;;;;;;;;;;;5113940;28;919;-66
2023/09/21 07:49:15;;;;;;;;;;;;;;;;;;5113429;28;845;-65
2023/09/21 07:51:41;;;;;;;;;;;;;;;;;;5114050;28;902;-66
2023/09/21 07:54:06;;;;;;;;;;;;;;;;;;5114640;28;1038;-66
2023/09/21 07:56:32;;;;;;;;;;;;;;;;;;5112541;28;1221;-65
2023/09/21 07:58:58;;;;;;;;;;;;;;;;;;5093253;28;1961;-65
2023/09/21 08:01:26;;;;;;;;;;;;;;;;;;5092479;28;1427;-65
2023/09/21 08:03:51;;;;;;;;;;;;;;;;;;5092192;28;1227;-65
2023/09/21 08:06:17;;;;;;;;;;;;;;;;;;5093658;28;1169;-65
2023/09/21 08:08:43;;;;;;;;;;;;;;;;;;5093054;28;854;-65
2023/09/21 08:11:08;;;;;;;;;;;;;;;;;;5093752;28;986;-65
2023/09/21 08:13:33;;;;;;;;;;;;;;;;;;5092512;28;942;-65
2023/09/21 08:15:59;;;;;;;;;;;;;;;;;;5094017;28;824;-65
2023/09/21 08:18:25;;;;;;;;;;;;;;;;;;5092566;28;1890;-65
2023/09/21 08:20:50;;;;;;;;;;;;;;;;;;5092807;28;1335;-65
2023/09/21 08:23:17;;;;;;;;;;;;;;;;;;5098937;28;1179;-64
2023/09/21 08:25:42;;;;;;;;;;;;;;;;;;5093043;28;882;-64
2023/09/21 08:28:08;;;;;;;;;;;;;;;;;;5093246;28;837;-64
2023/09/21 08:30:33;;;;;;;;;;;;;;;;;;5092183;28;887;-64
2023/09/21 08:32:59;;;;;;;;;;;;;;;;;;5093179;28;1046;-64
2023/09/21 08:35:24;;;;;;;;;;;;;;;;;;5093255;28;967;-64
2023/09/21 08:37:50;;;;;;;;;;;;;;;;;;5092939;28;1902;-64
2023/09/21 08:40:16;;;;;;;;;;;;;;;;;;5092002;28;1441;-64
2023/09/21 08:42:43;;;;;;;;;;;;;;;;;;5092441;28;1010;-65
2023/09/21 08:45:11;;;;;;;;;;;;;;;;;;5092968;28;912;-65
2023/09/21 08:47:40;;;;;;;;;;;;;;;;;;5092934;28;868;-65
2023/09/21 08:50:07;;;;;;;;;;;;;;;;;;5093235;28;816;-65
2023/09/21 08:52:33;;;;;;;;;;;;;;;;;;5092491;28;828;-65
2023/09/21 08:54:58;;;;;;;;;;;;;;;;;;5093946;28;836;-65
2023/09/21 08:57:24;;;;;;;;;;;;;;;;;;5093830;28;1957;-65
2023/09/21 08:59:54;;;;;;;;;;;;;;;;;;5093437;28;932;-65
2023/09/21 09:02:19;;;;;;;;;;;;;;;;;;5093791;28;923;-64
2023/09/21 09:04:45;;;;;;;;;;;;;;;;;;5093780;28;1022;-65
2023/09/21 09:07:13;;;;;;;;;;;;;;;;;;5094514;28;958;-65
2023/09/21 09:09:39;;;;;;;;;;;;;;;;;;5093373;28;880;-64
2023/09/21 09:12:24;;;;;;;;;;;;;;;;;;5092570;28;1186;-65
2023/09/21 09:14:57;;;;;;;;;;;;;;;;;;5093031;28;1808;-65
2023/09/21 09:17:28;;;;;;;;;;;;;;;;;;5093979;28;1952;-65
2023/09/21 09:19:53;;;;;;;;;;;;;;;;;;5093343;28;1112;-66
2023/09/21 09:22:18;;;;;;;;;;;;;;;;;;5092396;28;836;-66
2023/09/21 09:24:49;;;;;;;;;;;;;;;;;;5091276;28;812;-66
2023/09/21 09:27:15;;;;;;;;;;;;;;;;;;5092497;28;915;-65
2023/09/21 09:29:50;;;;;;;;;;;;;;;;;;5091576;28;851;-65
2023/09/21 09:32:19;;;;;;;;;;;;;;;;;;5092214;28;878;-65
2023/09/21 09:34:46;;;;;;;;;;;;;;;;;;5091055;28;856;-65
2023/09/21 09:37:15;;;;;;;;;;;;;;;;;;5091641;28;1887;-65
2023/09/21 09:39:41;;;;;;;;;;;;;;;;;;5091564;28;927;-66
2023/09/21 09:42:06;;;;;;;;;;;;;;;;;;5091857;28;1011;-65
2023/09/21 09:44:34;;;;;;;;;;;;;;;;;;5089743;28;1191;-64
2023/09/21 09:47:03;;;;;;;;;;;;;;;;;;5091869;28;1030;-66
2023/09/21 09:49:29;;;;;;;;;;;;;;;;;;5091485;28;844;-65
2023/09/21 09:51:56;;;;;;;;;;;;;;;;;;5089829;28;1105;-65
2023/09/21 09:54:21;;;;;;;;;;;;;;;;;;5090211;28;705;-65
2023/09/21 09:56:48;;;;;;;;;;;;;;;;;;5090804;28;1893;-65
2023/09/21 09:59:15;;;;;;;;;;;;;;;;;;5090340;28;1264;-65
2023/09/21 10:01:44;;;;;;;;;;;;;;;;;;5091824;28;1228;-65
2023/09/21 10:04:10;;;;;;;;;;;;;;;;;;5090219;28;978;-65
2023/09/21 10:06:36;;;;;;;;;;;;;;;;;;5072422;28;1475;-65
2023/09/21 10:09:10;;;;;;;;;;;;;;;;;;5090402;28;1211;-65
2023/09/21 10:11:46;;;;;;;;;;;;;;;;;;5091829;28;843;-65
2023/09/21 10:14:16;;;;;;;;;;;;;;;;;;5092559;28;926;-65
2023/09/21 10:16:49;;;;;;;;;;;;;;;;;;5091920;28;891;-65
2023/09/21 10:19:17;;;;;;;;;;;;;;;;;;5091567;28;1351;-65
2023/09/21 10:21:45;;;;;;;;;;;;;;;;;;5091023;28;1218;-65
2023/09/21 10:24:13;;;;;;;;;;;;;;;;;;5091740;28;944;-65
2023/09/21 10:26:43;;;;;;;;;;;;;;;;;;5089509;28;868;-65
2023/09/21 10:29:12;;;;;;;;;;;;;;;;;;5088414;28;1353;-65
2023/09/21 10:31:37;;;;;;;;;;;;;;;;;;5088940;28;845;-65
2023/09/21 10:34:02;;;;;;;;;;;;;;;;;;5090059;28;902;-65
2023/09/21 10:36:29;;;;;;;;;;;;;;;;;;5089989;28;852;-65
2023/09/21 10:39:06;;;;;;;;;;;;;;;;;;5089788;28;1918;-65
2023/09/21 10:41:33;;;;;;;;;;;;;;;;;;5090377;28;1007;-65
2023/09/21 10:44:02;;;;;;;;;;;;;;;;;;5092265;28;899;-65
2023/09/21 10:46:31;;;;;;;;;;;;;;;;;;5092421;28;908;-65
2023/09/21 10:48:57;;;;;;;;;;;;;;;;;;5090551;28;1709;-65
2023/09/21 10:51:23;;;;;;;;;;;;;;;;;;5092161;28;879;-65
2023/09/21 10:53:49;;;;;;;;;;;;;;;;;;5090632;28;852;-64
2023/09/21 10:56:14;;;;;;;;;;;;;;;;;;5092060;28;907;-64
2023/09/21 10:58:40;;;;;;;;;;;;;;;;;;5091027;28;1898;-64
2023/09/21 11:01:05;;;;;;;;;;;;;;;;;;5089595;28;852;-64
2023/09/21 11:03:32;;;;;;;;;;;;;;;;;;5090828;28;817;-65
2023/09/21 11:05:57;;;;;;;;;;;;;;;;;;5090067;28;938;-64
2023/09/21 11:08:26;;;;;;;;;;;;;;;;;;5072600;28;856;-64
2023/09/21 11:10:51;;;;;;;;;;;;;;;;;;5090101;28;929;-64
2023/09/21 11:13:17;;;;;;;;;;;;;;;;;;5090544;28;809;-65
2023/09/21 11:15:43;;;;;;;;;;;;;;;;;;5090103;28;882;-65
2023/09/21 11:18:09;;;;;;;;;;;;;;;;;;5090519;28;1969;-64
2023/09/21 11:20:34;;;;;;;;;;;;;;;;;;5089749;28;1175;-64
2023/09/21 11:23:01;;;;;;;;;;;;;;;;;;5089269;28;1194;-65
2023/09/21 11:25:27;;;;;;;;;;;;;;;;;;5091155;28;820;-64
2023/09/21 11:27:52;;;;;;;;;;;;;;;;;;5071844;28;1301;-65
2023/09/21 11:30:18;;;;;;;;;;;;;;;;;;5089168;28;1337;-65
2023/09/21 11:32:45;;;;;;;;;;;;;;;;;;5089741;28;931;-65
2023/09/21 11:35:11;;;;;;;;;;;;;;;;;;5090520;28;793;-64
2023/09/21 11:37:36;;;;;;;;;;;;;;;;;;5089954;28;1901;-65
2023/09/21 11:40:03;;;;;;;;;;;;;;;;;;5090255;28;832;-66
2023/09/21 11:42:33;;;;;;;;;;;;;;;;;;5089948;28;884;-66
2023/09/21 11:44:58;;;;;;;;;;;;;;;;;;5090274;28;801;-66
2023/09/21 11:47:23;;;;;;;;;;;;;;;;;;5090067;28;934;-66
2023/09/21 11:49:52;;;;;;;;;;;;;;;;;;5092811;28;927;-65
2023/09/21 11:52:17;;;;;;;;;;;;;;;;;;5093933;28;880;-65
2023/09/21 11:54:43;;;;;;;;;;;;;;;;;;5093351;28;820;-64
2023/09/21 11:57:11;;;;;;;;;;;;;;;;;;5094120;28;1952;-65
2023/09/21 11:59:41;;;;;;;;;;;;;;;;;;5093438;28;911;-65
2023/09/21 12:02:09;;;;;;;;;;;;;;;;;;5094106;28;892;-65
2023/09/21 12:04:37;;;;;;;;;;;;;;;;;;5094007;28;875;-65
2023/09/21 12:07:04;;;;;;;;;;;;;;;;;;5094624;28;868;-65
2023/09/21 12:09:29;;;;;;;;;;;;;;;;;;5094185;28;880;-64
2023/09/21 12:11:54;;;;;;;;;;;;;;;;;;5094304;28;832;-64
2023/09/21 12:14:22;;;;;;;;;;;;;;;;;;5094348;28;966;-65
2023/09/21 12:16:53;;;;;;;;;;;;;;;;;;5093831;28;1006;-65
2023/09/21 12:19:18;;;;;;;;;;;;;;;;;;5094029;28;809;-64
2023/09/21 12:21:46;;;;;;;;;;;;;;;;;;5093323;28;1096;-65
2023/09/21 12:24:11;;;;;;;;;;;;;;;;;;5094497;28;888;-65
2023/09/21 12:26:36;;;;;;;;;;;;;;;;;;5094551;28;813;-65
2023/09/21 12:29:02;;;;;;;;;;;;;;;;;;5094300;28;832;-64
2023/09/21 12:31:28;;;;;;;;;;;;;;;;;;5094231;28;836;-64
2023/09/21 12:33:55;;;;;;;;;;;;;;;;;;5094258;28;828;-65
2023/09/21 12:36:20;;;;;;;;;;;;;;;;;;5094026;28;808;-65
2023/09/21 12:38:46;;;;;;;;;;;;;;;;;;5093081;28;2040;-66
2023/09/21 12:41:11;;;;;;;;;;;;;;;;;;5093754;28;978;-65
2023/09/21 12:43:38;;;;;;;;;;;;;;;;;;5092494;28;919;-65
2023/09/21 12:46:03;;;;;;;;;;;;;;;;;;5092879;28;891;-65
2023/09/21 12:48:29;;;;;;;;;;;;;;;;;;5092872;28;939;-65
2023/09/21 12:50:54;;;;;;;;;;;;;;;;;;5091327;28;1158;-65
2023/09/21 12:53:19;;;;;;;;;;;;;;;;;;5093079;28;1048;-66
2023/09/21 12:55:45;;;;;;;;;;;;;;;;;;5092534;28;871;-66
2023/09/21 12:58:11;;;;;;;;;;;;;;;;;;5092724;28;1981;-66
2023/09/21 13:00:37;;;;;;;;;;;;;;;;;;5089486;28;1050;-65
2023/09/21 13:03:04;;;;;;;;;;;;;;;;;;5092448;28;852;-65
2023/09/21 13:05:30;;;;;;;;;;;;;;;;;;5093069;28;914;-65
2023/09/21 13:07:56;;;;;;;;;;;;;;;;;;5092319;28;1002;-66
2023/09/21 13:10:21;;;;;;;;;;;;;;;;;;5092152;28;860;-66
2023/09/21 13:12:47;;;;;;;;;;;;;;;;;;5092545;28;943;-65
2023/09/21 13:15:14;;;;;;;;;;;;;;;;;;5092515;28;824;-65
2023/09/21 13:17:39;;;;;;;;;;;;;;;;;;5091911;28;1953;-65
2023/09/21 13:20:05;;;;;;;;;;;;;;;;;;5091820;28;1169;-65
2023/09/21 13:22:31;;;;;;;;;;;;;;;;;;5092480;28;911;-65
2023/09/21 13:24:57;;;;;;;;;;;;;;;;;;5091968;28;863;-65
2023/09/21 13:27:24;;;;;;;;;;;;;;;;;;5091153;28;1108;-65
2023/09/21 13:29:50;;;;;;;;;;;;;;;;;;5092281;28;940;-65
2023/09/21 13:32:15;;;;;;;;;;;;;;;;;;5092210;28;991;-65
2023/09/21 13:34:40;;;;;;;;;;;;;;;;;;5092349;28;887;-65
2023/09/21 13:37:06;;;;;;;;;;;;;;;;;;5092863;28;1906;-64
2023/09/21 13:39:33;;;;;;;;;;;;;;;;;;5092925;28;820;-65
2023/09/21 13:41:59;;;;;;;;;;;;;;;;;;5090478;28;1977;-65
2023/09/21 13:44:26;;;;;;;;;;;;;;;;;;5092596;28;828;-65
2023/09/21 13:46:54;;;;;;;;;;;;;;;;;;5092296;28;857;-64
2023/09/21 13:49:20;;;;;;;;;;;;;;;;;;5092859;28;864;-65
2023/09/21 13:51:46;;;;;;;;;;;;;;;;;;5092965;28;1351;-65
2023/09/21 13:54:12;;;;;;;;;;;;;;;;;;5111748;27;1198;-65
2023/09/21 13:56:38;;;;;;;;;;;;;;;;;;5111252;28;1014;-65
2023/09/21 13:59:04;;;;;;;;;;;;;;;;;;5112586;28;1959;-65
2023/09/21 14:01:29;;;;;;;;;;;;;;;;;;5112655;28;916;-65
2023/09/21 14:03:54;;;;;;;;;;;;;;;;;;5111085;28;1507;-65
2023/09/21 14:06:21;;;;;;;;;;;;;;;;;;5113519;28;824;-65
2023/09/21 14:08:47;;;;;;;;;;;;;;;;;;5112938;28;808;-65
2023/09/21 14:11:13;;;;;;;;;;;;;;;;;;5112621;28;852;-65
2023/09/21 14:13:40;;;;;;;;;;;;;;;;;;5112869;27;829;-65
2023/09/21 14:16:06;;;;;;;;;;;;;;;;;;5111473;28;820;-65
2023/09/21 14:18:32;;;;;;;;;;;;;;;;;;5112045;28;1918;-65
2023/09/21 14:20:58;;;;;;;;;;;;;;;;;;5110311;28;1183;-65
2023/09/21 14:23:23;;;;;;;;;;;;;;;;;;5112130;28;812;-65
2023/09/21 14:25:48;;;;;;;;;;;;;;;;;;5111064;28;832;-65
2023/09/21 14:28:13;;;;;;;;;;;;;;;;;;5111029;28;947;-65
2023/09/21 14:30:39;;;;;;;;;;;;;;;;;;5109402;28;1258;-65
2023/09/21 14:33:07;;;;;;;;;;;;;;;;;;5110952;28;816;-65
2023/09/21 14:35:34;;;;;;;;;;;;;;;;;;5110461;28;875;-65
2023/09/21 14:37:59;;;;;;;;;;;;;;;;;;5109969;28;1914;-65
2023/09/21 14:40:24;;;;;;;;;;;;;;;;;;5111406;28;840;-65
2023/09/21 14:42:50;;;;;;;;;;;;;;;;;;5110754;28;967;-66
2023/09/21 14:45:15;;;;;;;;;;;;;;;;;;5111440;28;1188;-64
2023/09/21 14:47:40;;;;;;;;;;;;;;;;;;5109261;28;1270;-65
2023/09/21 14:50:07;;;;;;;;;;;;;;;;;;5111415;28;864;-65
2023/09/21 14:52:33;;;;;;;;;;;;;;;;;;5110605;28;860;-65
2023/09/21 14:54:58;;;;;;;;;;;;;;;;;;5108945;28;954;-64
2023/09/21 14:57:24;;;;;;;;;;;;;;;;;;5109968;28;1951;-65
2023/09/21 14:59:50;;;;;;;;;;;;;;;;;;5110843;28;892;-65
2023/09/21 15:02:15;;;;;;;;;;;;;;;;;;5110778;28;1013;-65
2023/09/21 15:04:40;;;;;;;;;;;;;;;;;;5110720;28;881;-65
2023/09/21 15:07:07;;;;;;;;;;;;;;;;;;5110558;28;939;-65
2023/09/21 15:09:32;;;;;;;;;;;;;;;;;;5111059;28;911;-65
2023/09/21 15:11:58;;;;;;;;;;;;;;;;;;5110650;28;879;-66
2023/09/21 15:14:23;;;;;;;;;;;;;;;;;;5109788;28;1455;-65
2023/09/21 15:16:48;;;;;;;;;;;;;;;;;;5111017;28;872;-64
2023/09/21 15:19:14;;;;;;;;;;;;;;;;;;5099497;28;1891;-65
2023/09/21 15:21:39;;;;;;;;;;;;;;;;;;5088435;28;1215;-64
2023/09/21 15:24:06;;;;;;;;;;;;;;;;;;5093271;28;990;-64
2023/09/21 15:26:31;;;;;;;;;;;;;;;;;;5094797;28;900;-64
2023/09/21 15:28:56;;;;;;;;;;;;;;;;;;5095452;28;844;-64
2023/09/21 15:31:21;;;;;;;;;;;;;;;;;;5095893;28;1061;-64
2023/09/21 15:33:47;;;;;;;;;;;;;;;;;;5093336;28;924;-64
2023/09/21 15:36:12;;;;;;;;;;;;;;;;;;5076701;28;1461;-64
2023/09/21 15:38:37;;;;;;;;;;;;;;;;;;5094984;28;1914;-64
2023/09/21 15:41:03;;;;;;;;;;;;;;;;;;5093283;28;1246;-66
2023/09/21 15:43:28;;;;;;;;;;;;;;;;;;5095153;28;833;-65
2023/09/21 15:45:54;;;;;;;;;;;;;;;;;;5093082;28;1159;-64
2023/09/21 15:48:19;;;;;;;;;;;;;;;;;;5092812;28;860;-65
2023/09/21 15:50:44;;;;;;;;;;;;;;;;;;5093425;28;935;-64
2023/09/21 15:53:09;;;;;;;;;;;;;;;;;;5094063;28;852;-65
2023/09/21 15:55:35;;;;;;;;;;;;;;;;;;5094063;28;809;-64
2023/09/21 15:58:01;;;;;;;;;;;;;;;;;;5094146;28;1973;-65
2023/09/21 16:00:28;;;;;;;;;;;;;;;;;;5094795;28;790;-65
2023/09/21 16:02:54;;;;;;;;;;;;;;;;;;5094840;28;876;-65
2023/09/21 16:05:19;;;;;;;;;;;;;;;;;;5094120;28;896;-65
2023/09/21 16:07:45;;;;;;;;;;;;;;;;;;5093999;28;833;-64
2023/09/21 16:10:10;;;;;;;;;;;;;;;;;;5094400;28;1035;-64
2023/09/21 16:12:36;;;;;;;;;;;;;;;;;;5094105;28;911;-64
2023/09/21 16:15:01;;;;;;;;;;;;;;;;;;5092810;28;1090;-64
2023/09/21 16:17:29;;;;;;;;;;;;;;;;;;5092598;28;1910;-63
2023/09/21 16:19:54;;;;;;;;;;;;;;;;;;5093643;28;1681;-64
2023/09/21 16:22:20;;;;;;;;;;;;;;;;;;5094262;28;1183;-64
2023/09/21 16:24:45;;;;;;;;;;;;;;;;;;5090942;28;1313;-64
2023/09/21 16:27:12;;;;;;;;;;;;;;;;;;5092878;28;828;-64
2023/09/21 16:29:37;;;;;;;;;;;;;;;;;;5093752;28;915;-64
2023/09/21 16:32:03;;;;;;;;;;;;;;;;;;5092426;28;844;-65
2023/09/21 16:34:29;;;;;;;;;;;;;;;;;;5093916;28;831;-65
2023/09/21 16:36:54;;;;;;;;;;;;;;;;;;5093622;28;973;-64
2023/09/21 16:39:19;;;;;;;;;;;;;;;;;;5093159;28;1886;-65
2023/09/21 16:41:45;;;;;;;;;;;;;;;;;;5093695;28;895;-64
2023/09/21 16:44:12;;;;;;;;;;;;;;;;;;5093147;28;813;-64
2023/09/21 16:46:37;;;;;;;;;;;;;;;;;;5093705;28;836;-65
2023/09/21 16:49:02;;;;;;;;;;;;;;;;;;5074763;28;1204;-64
2023/09/21 16:51:28;;;;;;;;;;;;;;;;;;5090597;28;1325;-64
2023/09/21 16:53:53;;;;;;;;;;;;;;;;;;5092498;28;773;-64
2023/09/21 16:56:19;;;;;;;;;;;;;;;;;;5092642;28;888;-64
2023/09/21 16:58:44;;;;;;;;;;;;;;;;;;5092755;28;1902;-64
2023/09/21 17:01:09;;;;;;;;;;;;;;;;;;5092956;28;808;-64
2023/09/21 17:03:35;;;;;;;;;;;;;;;;;;5092435;28;809;-64
2023/09/21 17:06:00;;;;;;;;;;;;;;;;;;5092140;28;1017;-64